Plainview, Illinois
Current Conditions -  °F | °C
As of 3:50 PM on Friday 24 Oct 2014 (Local Time) from KALN Reporting Station
Scattered Clouds Scattered Clouds  
Wind Chill: 70°   Ceiling: Unl
Heat Index: 70°   Visibility: 10mi
Dew Point: 50°   Wind: 7mph
Humidity: 49%   Direction: 220°SW
Pressure: 30.03"   Gusts: NA
Location:  39.138°N, 90.0562°W
Report Text: KALN 242050Z 22006KT 10SM SCT150 21/10 A3003
Loading
Personal Weather Stations






























Interactive Weather Map
Tropical Storm Tracking
New forecast layout! Learn more

10-Day Weather Forecast

Advertisements
Track Severe Weather on mobile